sensor_id;sensor_type;location;lat;lon;timestamp;pressure;altitude;pressure_sealevel;temperature;humidity
44663;BME280;30381;52.754;18.258;2023-02-21T00:00:48;99527.20;;;6.81;100.00
44663;BME280;30381;52.754;18.258;2023-02-21T00:03:33;99530.92;;;6.80;100.00
44663;BME280;30381;52.754;18.258;2023-02-21T00:06:18;99537.55;;;6.78;100.00
44663;BME280;30381;52.754;18.258;2023-02-21T00:09:02;99541.08;;;6.76;100.00
44663;BME280;30381;52.754;18.258;2023-02-21T00:11:47;99535.13;;;6.77;100.00
44663;BME280;30381;52.754;18.258;2023-02-21T00:14:32;99535.58;;;6.79;100.00
44663;BME280;30381;52.754;18.258;2023-02-21T00:17:16;99529.14;;;6.81;100.00
44663;BME280;30381;52.754;18.258;2023-02-21T00:20:01;99525.55;;;6.82;100.00
44663;BME280;30381;52.754;18.258;2023-02-21T00:22:46;99529.44;;;6.83;100.00
44663;BME280;30381;52.754;18.258;2023-02-21T00:25:31;99526.36;;;6.82;100.00
44663;BME280;30381;52.754;18.258;2023-02-21T00:28:15;99529.84;;;6.81;100.00
44663;BME280;30381;52.754;18.258;2023-02-21T00:31:01;99523.11;;;6.81;100.00
44663;BME280;30381;52.754;18.258;2023-02-21T00:33:47;99528.65;;;6.81;100.00
44663;BME280;30381;52.754;18.258;2023-02-21T00:36:32;99529.00;;;6.77;100.00
44663;BME280;30381;52.754;18.258;2023-02-21T00:39:17;99528.10;;;6.73;100.00
44663;BME280;30381;52.754;18.258;2023-02-21T00:42:03;99526.96;;;6.70;100.00
44663;BME280;30381;52.754;18.258;2023-02-21T00:44:47;99523.10;;;6.65;100.00
44663;BME280;30381;52.754;18.258;2023-02-21T00:47:32;99518.27;;;6.63;100.00
44663;BME280;30381;52.754;18.258;2023-02-21T00:50:17;99517.73;;;6.60;100.00
44663;BME280;30381;52.754;18.258;2023-02-21T00:53:03;99523.98;;;6.59;100.00
44663;BME280;30381;52.754;18.258;2023-02-21T00:55:47;99526.73;;;6.57;100.00
44663;BME280;30381;52.754;18.258;2023-02-21T00:58:32;99526.42;;;6.53;100.00
44663;BME280;30381;52.754;18.258;2023-02-21T01:01:17;99535.47;;;6.48;100.00
44663;BME280;30381;52.754;18.258;2023-02-21T01:04:01;99530.66;;;6.47;100.00
44663;BME280;30381;52.754;18.258;2023-02-21T01:06:49;99519.44;;;6.47;100.00
44663;BME280;30381;52.754;18.258;2023-02-21T01:09:35;99525.59;;;6.48;100.00
44663;BME280;30381;52.754;18.258;2023-02-21T01:12:19;99514.64;;;6.49;100.00
44663;BME280;30381;52.754;18.258;2023-02-21T01:15:04;99513.48;;;6.48;100.00
44663;BME280;30381;52.754;18.258;2023-02-21T01:17:50;99507.48;;;6.47;100.00
44663;BME280;30381;52.754;18.258;2023-02-21T01:20:35;99506.98;;;6.45;100.00
44663;BME280;30381;52.754;18.258;2023-02-21T01:23:20;99509.02;;;6.44;100.00
44663;BME280;30381;52.754;18.258;2023-02-21T01:26:08;99511.31;;;6.46;100.00
44663;BME280;30381;52.754;18.258;2023-02-21T01:28:52;99507.70;;;6.45;100.00
44663;BME280;30381;52.754;18.258;2023-02-21T01:31:39;99500.85;;;6.46;100.00
44663;BME280;30381;52.754;18.258;2023-02-21T01:34:24;99496.94;;;6.47;100.00
44663;BME280;30381;52.754;18.258;2023-02-21T01:37:09;99497.96;;;6.48;100.00
44663;BME280;30381;52.754;18.258;2023-02-21T01:39:56;99502.90;;;6.47;100.00
44663;BME280;30381;52.754;18.258;2023-02-21T01:42:41;99504.63;;;6.47;100.00
44663;BME280;30381;52.754;18.258;2023-02-21T01:45:41;99508.79;;;6.46;100.00
44663;BME280;30381;52.754;18.258;2023-02-21T01:48:28;99516.46;;;6.44;100.00
44663;BME280;30381;52.754;18.258;2023-02-21T01:51:18;99524.05;;;6.44;100.00
44663;BME280;30381;52.754;18.258;2023-02-21T01:54:04;99526.55;;;6.46;100.00
44663;BME280;30381;52.754;18.258;2023-02-21T01:56:53;99533.63;;;6.45;100.00
44663;BME280;30381;52.754;18.258;2023-02-21T01:59:42;99528.55;;;6.44;100.00
44663;BME280;30381;52.754;18.258;2023-02-21T02:02:36;99531.27;;;6.43;100.00
44663;BME280;30381;52.754;18.258;2023-02-21T02:05:24;99528.20;;;6.40;100.00
44663;BME280;30381;52.754;18.258;2023-02-21T02:08:10;99529.69;;;6.35;100.00
44663;BME280;30381;52.754;18.258;2023-02-21T02:11:09;99528.36;;;6.31;100.00
44663;BME280;30381;52.754;18.258;2023-02-21T02:23:00;99527.30;;;6.17;100.00
44663;BME280;30381;52.754;18.258;2023-02-21T02:36:41;99537.66;;;6.26;100.00
44663;BME280;30381;52.754;18.258;2023-02-21T02:48:06;99557.84;;;6.12;100.00
44663;BME280;30381;52.754;18.258;2023-02-21T02:50:38;99559.17;;;6.12;100.00
44663;BME280;30381;52.754;18.258;2023-02-21T02:53:06;99557.31;;;6.07;100.00
44663;BME280;30381;52.754;18.258;2023-02-21T02:55:42;99563.36;;;6.01;100.00
44663;BME280;30381;52.754;18.258;2023-02-21T02:58:11;99570.38;;;5.98;100.00
44663;BME280;30381;52.754;18.258;2023-02-21T03:00:41;99577.14;;;5.96;100.00
44663;BME280;30381;52.754;18.258;2023-02-21T03:09:12;99578.90;;;5.82;100.00
44663;BME280;30381;52.754;18.258;2023-02-21T03:11:50;99576.95;;;5.77;100.00
44663;BME280;30381;52.754;18.258;2023-02-21T03:14:24;99578.71;;;5.72;100.00
44663;BME280;30381;52.754;18.258;2023-02-21T03:16:56;99579.86;;;5.67;100.00
44663;BME280;30381;52.754;18.258;2023-02-21T03:19:26;99584.73;;;5.61;100.00
44663;BME280;30381;52.754;18.258;2023-02-21T03:22:12;99590.41;;;5.56;100.00
44663;BME280;30381;52.754;18.258;2023-02-21T03:24:42;99592.54;;;5.52;100.00
44663;BME280;30381;52.754;18.258;2023-02-21T03:27:11;99586.58;;;5.50;100.00
44663;BME280;30381;52.754;18.258;2023-02-21T03:29:38;99581.95;;;5.47;100.00
44663;BME280;30381;52.754;18.258;2023-02-21T03:32:12;99576.33;;;5.43;100.00
44663;BME280;30381;52.754;18.258;2023-02-21T03:34:42;99578.31;;;5.39;100.00
44663;BME280;30381;52.754;18.258;2023-02-21T03:37:21;99594.77;;;5.37;100.00
44663;BME280;30381;52.754;18.258;2023-02-21T03:40:06;99581.63;;;5.36;100.00
44663;BME280;30381;52.754;18.258;2023-02-21T03:42:34;99577.23;;;5.35;100.00
44663;BME280;30381;52.754;18.258;2023-02-21T03:45:03;99579.92;;;5.34;100.00
44663;BME280;30381;52.754;18.258;2023-02-21T03:47:29;99585.36;;;5.31;100.00
44663;BME280;30381;52.754;18.258;2023-02-21T03:49:56;99586.84;;;5.31;100.00
44663;BME280;30381;52.754;18.258;2023-02-21T03:52:22;99588.42;;;5.29;100.00
44663;BME280;30381;52.754;18.258;2023-02-21T03:54:49;99590.41;;;5.27;100.00
44663;BME280;30381;52.754;18.258;2023-02-21T03:57:16;99590.83;;;5.26;100.00
44663;BME280;30381;52.754;18.258;2023-02-21T03:59:46;99584.29;;;5.25;100.00
44663;BME280;30381;52.754;18.258;2023-02-21T04:02:12;99583.92;;;5.24;100.00
44663;BME280;30381;52.754;18.258;2023-02-21T04:04:38;99590.64;;;5.21;100.00
44663;BME280;30381;52.754;18.258;2023-02-21T04:07:04;99587.18;;;5.21;100.00
44663;BME280;30381;52.754;18.258;2023-02-21T04:09:30;99579.79;;;5.23;100.00
44663;BME280;30381;52.754;18.258;2023-02-21T04:11:56;99572.38;;;5.24;100.00
44663;BME280;30381;52.754;18.258;2023-02-21T04:14:24;99577.55;;;5.27;100.00
44663;BME280;30381;52.754;18.258;2023-02-21T04:16:50;99580.79;;;5.30;100.00
44663;BME280;30381;52.754;18.258;2023-02-21T04:19:17;99571.00;;;5.32;100.00
44663;BME280;30381;52.754;18.258;2023-02-21T04:21:43;99569.29;;;5.33;100.00
44663;BME280;30381;52.754;18.258;2023-02-21T04:24:10;99571.00;;;5.33;100.00
44663;BME280;30381;52.754;18.258;2023-02-21T04:26:36;99579.42;;;5.33;100.00
44663;BME280;30381;52.754;18.258;2023-02-21T04:29:03;99577.93;;;5.34;100.00
44663;BME280;30381;52.754;18.258;2023-02-21T04:31:30;99580.65;;;5.33;100.00
44663;BME280;30381;52.754;18.258;2023-02-21T04:33:58;99584.04;;;5.31;100.00
44663;BME280;30381;52.754;18.258;2023-02-21T04:36:26;99580.88;;;5.29;100.00
44663;BME280;30381;52.754;18.258;2023-02-21T04:38:52;99591.88;;;5.30;100.00
44663;BME280;30381;52.754;18.258;2023-02-21T04:41:18;99590.40;;;5.30;100.00
44663;BME280;30381;52.754;18.258;2023-02-21T04:43:45;99599.88;;;5.34;100.00
44663;BME280;30381;52.754;18.258;2023-02-21T04:46:16;99585.80;;;5.38;100.00
44663;BME280;30381;52.754;18.258;2023-02-21T04:48:47;99589.45;;;5.43;100.00
44663;BME280;30381;52.754;18.258;2023-02-21T04:51:15;99594.39;;;5.47;100.00
44663;BME280;30381;52.754;18.258;2023-02-21T04:53:42;99597.18;;;5.49;100.00
44663;BME280;30381;52.754;18.258;2023-02-21T04:56:08;99607.36;;;5.53;100.00
44663;BME280;30381;52.754;18.258;2023-02-21T04:58:35;99608.65;;;5.56;100.00
44663;BME280;30381;52.754;18.258;2023-02-21T05:01:02;99604.65;;;5.59;100.00
44663;BME280;30381;52.754;18.258;2023-02-21T05:03:30;99604.44;;;5.62;100.00
44663;BME280;30381;52.754;18.258;2023-02-21T05:05:56;99610.50;;;5.66;100.00
44663;BME280;30381;52.754;18.258;2023-02-21T05:08:23;99606.41;;;5.67;100.00
44663;BME280;30381;52.754;18.258;2023-02-21T05:10:49;99601.41;;;5.69;100.00
44663;BME280;30381;52.754;18.258;2023-02-21T05:13:16;99613.15;;;5.71;100.00
44663;BME280;30381;52.754;18.258;2023-02-21T05:15:42;99615.27;;;5.71;100.00
44663;BME280;30381;52.754;18.258;2023-02-21T05:18:08;99609.84;;;5.74;100.00
44663;BME280;30381;52.754;18.258;2023-02-21T05:20:49;99612.55;;;5.76;100.00
44663;BME280;30381;52.754;18.258;2023-02-21T05:23:33;99611.75;;;5.76;100.00
44663;BME280;30381;52.754;18.258;2023-02-21T05:26:02;99616.86;;;5.77;100.00
44663;BME280;30381;52.754;18.258;2023-02-21T05:28:29;99617.61;;;5.79;100.00
44663;BME280;30381;52.754;18.258;2023-02-21T05:30:56;99625.14;;;5.80;100.00
44663;BME280;30381;52.754;18.258;2023-02-21T05:33:24;99629.17;;;5.82;100.00
44663;BME280;30381;52.754;18.258;2023-02-21T05:35:53;99627.57;;;5.82;100.00
44663;BME280;30381;52.754;18.258;2023-02-21T05:38:59;99625.96;;;5.82;100.00
44663;BME280;30381;52.754;18.258;2023-02-21T05:41:47;99633.30;;;5.84;100.00
44663;BME280;30381;52.754;18.258;2023-02-21T05:44:16;99637.29;;;5.85;100.00
44663;BME280;30381;52.754;18.258;2023-02-21T05:46:48;99630.73;;;5.85;100.00
44663;BME280;30381;52.754;18.258;2023-02-21T05:49:16;99630.98;;;5.84;100.00
44663;BME280;30381;52.754;18.258;2023-02-21T05:51:42;99630.94;;;5.84;100.00
44663;BME280;30381;52.754;18.258;2023-02-21T05:54:16;99630.38;;;5.83;100.00
44663;BME280;30381;52.754;18.258;2023-02-21T05:56:45;99639.93;;;5.83;100.00
44663;BME280;30381;52.754;18.258;2023-02-21T05:59:17;99634.05;;;5.82;100.00
44663;BME280;30381;52.754;18.258;2023-02-21T06:01:45;99612.59;;;5.78;100.00
44663;BME280;30381;52.754;18.258;2023-02-21T06:04:13;99602.52;;;5.72;100.00
44663;BME280;30381;52.754;18.258;2023-02-21T06:06:40;99607.16;;;5.68;100.00
44663;BME280;30381;52.754;18.258;2023-02-21T06:09:07;99613.34;;;5.63;100.00
44663;BME280;30381;52.754;18.258;2023-02-21T06:11:35;99621.14;;;5.60;100.00
44663;BME280;30381;52.754;18.258;2023-02-21T06:14:18;99623.52;;;5.57;100.00
44663;BME280;30381;52.754;18.258;2023-02-21T06:16:45;99630.63;;;5.54;100.00
44663;BME280;30381;52.754;18.258;2023-02-21T06:19:13;99633.10;;;5.52;100.00
44663;BME280;30381;52.754;18.258;2023-02-21T06:21:41;99640.41;;;5.51;100.00
44663;BME280;30381;52.754;18.258;2023-02-21T06:24:11;99634.06;;;5.50;100.00
44663;BME280;30381;52.754;18.258;2023-02-21T06:26:38;99637.08;;;5.50;100.00
44663;BME280;30381;52.754;18.258;2023-02-21T06:29:09;99643.38;;;5.51;100.00
44663;BME280;30381;52.754;18.258;2023-02-21T06:37:20;99673.30;;;5.58;100.00
44663;BME280;30381;52.754;18.258;2023-02-21T06:42:56;99670.84;;;5.68;100.00
44663;BME280;30381;52.754;18.258;2023-02-21T06:45:23;99679.33;;;5.72;100.00
44663;BME280;30381;52.754;18.258;2023-02-21T06:47:52;99681.21;;;5.76;100.00
44663;BME280;30381;52.754;18.258;2023-02-21T06:50:18;99692.60;;;5.79;100.00
44663;BME280;30381;52.754;18.258;2023-02-21T06:52:47;99694.48;;;5.82;100.00
44663;BME280;30381;52.754;18.258;2023-02-21T06:55:19;99698.84;;;5.86;100.00
44663;BME280;30381;52.754;18.258;2023-02-21T06:57:48;99697.14;;;5.90;100.00
44663;BME280;30381;52.754;18.258;2023-02-21T07:00:17;99699.60;;;5.94;100.00
44663;BME280;30381;52.754;18.258;2023-02-21T07:02:44;99702.18;;;5.96;100.00
44663;BME280;30381;52.754;18.258;2023-02-21T07:05:16;99701.00;;;5.98;100.00
44663;BME280;30381;52.754;18.258;2023-02-21T07:07:52;99696.34;;;6.00;100.00
44663;BME280;30381;52.754;18.258;2023-02-21T07:10:21;99704.08;;;6.02;100.00
44663;BME280;30381;52.754;18.258;2023-02-21T07:12:51;99711.21;;;6.05;100.00
44663;BME280;30381;52.754;18.258;2023-02-21T07:15:41;99716.48;;;6.07;100.00
44663;BME280;30381;52.754;18.258;2023-02-21T07:20:32;99719.52;;;6.11;100.00
44663;BME280;30381;52.754;18.258;2023-02-21T07:23:26;99726.44;;;6.12;100.00
44663;BME280;30381;52.754;18.258;2023-02-21T07:26:04;99735.44;;;6.15;100.00
44663;BME280;30381;52.754;18.258;2023-02-21T07:28:33;99737.95;;;6.17;100.00
44663;BME280;30381;52.754;18.258;2023-02-21T07:30:59;99743.14;;;6.19;100.00
44663;BME280;30381;52.754;18.258;2023-02-21T07:33:26;99744.16;;;6.21;100.00
44663;BME280;30381;52.754;18.258;2023-02-21T07:35:52;99742.34;;;6.22;100.00
44663;BME280;30381;52.754;18.258;2023-02-21T07:38:24;99751.09;;;6.23;100.00
44663;BME280;30381;52.754;18.258;2023-02-21T07:40:57;99766.86;;;6.24;100.00
44663;BME280;30381;52.754;18.258;2023-02-21T07:43:42;99766.65;;;6.24;100.00
44663;BME280;30381;52.754;18.258;2023-02-21T07:46:14;99776.77;;;6.25;100.00
44663;BME280;30381;52.754;18.258;2023-02-21T07:48:45;99786.50;;;6.26;100.00
44663;BME280;30381;52.754;18.258;2023-02-21T07:51:28;99793.73;;;6.27;100.00
44663;BME280;30381;52.754;18.258;2023-02-21T07:54:03;99797.83;;;6.28;100.00
44663;BME280;30381;52.754;18.258;2023-02-21T07:56:44;99804.20;;;6.29;100.00
44663;BME280;30381;52.754;18.258;2023-02-21T07:59:20;99808.25;;;6.30;100.00
44663;BME280;30381;52.754;18.258;2023-02-21T08:01:47;99812.30;;;6.29;100.00
44663;BME280;30381;52.754;18.258;2023-02-21T08:04:18;99813.74;;;6.30;100.00
44663;BME280;30381;52.754;18.258;2023-02-21T08:06:49;99821.83;;;6.31;100.00
44663;BME280;30381;52.754;18.258;2023-02-21T08:09:19;99825.96;;;6.31;100.00
44663;BME280;30381;52.754;18.258;2023-02-21T08:11:48;99829.59;;;6.32;100.00
44663;BME280;30381;52.754;18.258;2023-02-21T08:14:19;99829.34;;;6.33;100.00
44663;BME280;30381;52.754;18.258;2023-02-21T08:16:51;99841.60;;;6.35;100.00
44663;BME280;30381;52.754;18.258;2023-02-21T08:19:34;99841.80;;;6.36;100.00
44663;BME280;30381;52.754;18.258;2023-02-21T08:22:02;99846.75;;;6.37;100.00
44663;BME280;30381;52.754;18.258;2023-02-21T08:24:31;99850.84;;;6.36;100.00
44663;BME280;30381;52.754;18.258;2023-02-21T08:26:58;99847.73;;;6.37;100.00
44663;BME280;30381;52.754;18.258;2023-02-21T08:29:30;99851.39;;;6.38;100.00
44663;BME280;30381;52.754;18.258;2023-02-21T08:31:58;99866.65;;;6.40;100.00
44663;BME280;30381;52.754;18.258;2023-02-21T08:34:24;99867.66;;;6.42;100.00
44663;BME280;30381;52.754;18.258;2023-02-21T08:36:55;99870.11;;;6.43;100.00
44663;BME280;30381;52.754;18.258;2023-02-21T08:39:24;99873.61;;;6.45;100.00
44663;BME280;30381;52.754;18.258;2023-02-21T08:41:52;99873.50;;;6.47;100.00
44663;BME280;30381;52.754;18.258;2023-02-21T08:44:25;99878.54;;;6.49;100.00
44663;BME280;30381;52.754;18.258;2023-02-21T08:46:53;99880.11;;;6.51;100.00
44663;BME280;30381;52.754;18.258;2023-02-21T08:49:25;99883.40;;;6.52;100.00
44663;BME280;30381;52.754;18.258;2023-02-21T08:51:52;99886.38;;;6.53;100.00
44663;BME280;30381;52.754;18.258;2023-02-21T08:56:46;99890.92;;;6.54;100.00
44663;BME280;30381;52.754;18.258;2023-02-21T08:59:22;99891.15;;;6.56;100.00
44663;BME280;30381;52.754;18.258;2023-02-21T09:01:55;99890.77;;;6.60;100.00
44663;BME280;30381;52.754;18.258;2023-02-21T09:04:29;99892.17;;;6.62;100.00
44663;BME280;30381;52.754;18.258;2023-02-21T09:06:58;99897.84;;;6.68;100.00
44663;BME280;30381;52.754;18.258;2023-02-21T09:09:27;99902.33;;;6.72;100.00
44663;BME280;30381;52.754;18.258;2023-02-21T09:12:11;99906.59;;;6.76;100.00
44663;BME280;30381;52.754;18.258;2023-02-21T09:14:43;99913.33;;;6.85;100.00
44663;BME280;30381;52.754;18.258;2023-02-21T09:17:12;99912.59;;;6.92;100.00
44663;BME280;30381;52.754;18.258;2023-02-21T09:19:42;99915.55;;;7.00;100.00
44663;BME280;30381;52.754;18.258;2023-02-21T09:22:17;99919.93;;;7.08;100.00
44663;BME280;30381;52.754;18.258;2023-02-21T09:24:53;99924.45;;;7.18;100.00
44663;BME280;30381;52.754;18.258;2023-02-21T09:27:20;99927.97;;;7.25;100.00
44663;BME280;30381;52.754;18.258;2023-02-21T09:30:20;99932.77;;;7.36;100.00
44663;BME280;30381;52.754;18.258;2023-02-21T09:32:55;99934.56;;;7.48;100.00
44663;BME280;30381;52.754;18.258;2023-02-21T09:35:43;99930.36;;;7.57;100.00
44663;BME280;30381;52.754;18.258;2023-02-21T09:38:20;99938.70;;;7.66;100.00
44663;BME280;30381;52.754;18.258;2023-02-21T09:41:00;99939.66;;;7.77;100.00
44663;BME280;30381;52.754;18.258;2023-02-21T09:43:50;99943.60;;;7.89;100.00
44663;BME280;30381;52.754;18.258;2023-02-21T09:46:48;99945.09;;;7.91;100.00
44663;BME280;30381;52.754;18.258;2023-02-21T09:49:37;99948.46;;;7.97;100.00
44663;BME280;30381;52.754;18.258;2023-02-21T09:52:40;99947.83;;;8.04;100.00
44663;BME280;30381;52.754;18.258;2023-02-21T09:58:43;99956.83;;;8.11;100.00
44663;BME280;30381;52.754;18.258;2023-02-21T10:04:26;99966.67;;;8.02;100.00
44663;BME280;30381;52.754;18.258;2023-02-21T10:07:24;99972.93;;;7.98;100.00
44663;BME280;30381;52.754;18.258;2023-02-21T10:10:11;99981.46;;;7.92;100.00
44663;BME280;30381;52.754;18.258;2023-02-21T10:16:21;99977.99;;;7.82;100.00
44663;BME280;30381;52.754;18.258;2023-02-21T10:19:17;99979.39;;;7.82;100.00
44663;BME280;30381;52.754;18.258;2023-02-21T10:21:54;99975.89;;;7.82;100.00
44663;BME280;30381;52.754;18.258;2023-02-21T10:24:26;99984.68;;;7.83;100.00
44663;BME280;30381;52.754;18.258;2023-02-21T10:27:06;99984.20;;;7.87;100.00
44663;BME280;30381;52.754;18.258;2023-02-21T10:32:23;99989.56;;;7.89;100.00
44663;BME280;30381;52.754;18.258;2023-02-21T10:34:58;99996.64;;;7.89;100.00
44663;BME280;30381;52.754;18.258;2023-02-21T10:38:31;99998.64;;;7.88;100.00
44663;BME280;30381;52.754;18.258;2023-02-21T10:41:01;99999.75;;;7.87;100.00
44663;BME280;30381;52.754;18.258;2023-02-21T10:43:59;99995.63;;;7.90;100.00
44663;BME280;30381;52.754;18.258;2023-02-21T10:46:29;99991.30;;;7.94;100.00
44663;BME280;30381;52.754;18.258;2023-02-21T10:49:30;100000.06;;;7.97;100.00
44663;BME280;30381;52.754;18.258;2023-02-21T10:52:12;99998.07;;;8.04;100.00
44663;BME280;30381;52.754;18.258;2023-02-21T10:57:38;99995.49;;;8.14;100.00
44663;BME280;30381;52.754;18.258;2023-02-21T11:04:47;100001.78;;;8.30;100.00
44663;BME280;30381;52.754;18.258;2023-02-21T11:07:17;100002.09;;;8.38;100.00
44663;BME280;30381;52.754;18.258;2023-02-21T11:09:47;100002.73;;;8.47;100.00
44663;BME280;30381;52.754;18.258;2023-02-21T11:12:24;100006.98;;;8.55;100.00
44663;BME280;30381;52.754;18.258;2023-02-21T11:17:30;100006.04;;;8.69;100.00
44663;BME280;30381;52.754;18.258;2023-02-21T11:20:20;100007.48;;;8.79;100.00
44663;BME280;30381;52.754;18.258;2023-02-21T11:26:49;100013.51;;;8.83;100.00
44663;BME280;30381;52.754;18.258;2023-02-21T11:29:23;100014.20;;;8.90;100.00
44663;BME280;30381;52.754;18.258;2023-02-21T11:31:57;100013.94;;;8.98;100.00
44663;BME280;30381;52.754;18.258;2023-02-21T11:34:27;100020.19;;;9.01;100.00
44663;BME280;30381;52.754;18.258;2023-02-21T11:37:01;100026.52;;;9.01;100.00
44663;BME280;30381;52.754;18.258;2023-02-21T11:43:31;100035.64;;;8.84;100.00
44663;BME280;30381;52.754;18.258;2023-02-21T11:46:36;100039.00;;;8.83;100.00
44663;BME280;30381;52.754;18.258;2023-02-21T11:49:41;100044.41;;;8.79;100.00
44663;BME280;30381;52.754;18.258;2023-02-21T11:52:24;100043.39;;;8.74;100.00
44663;BME280;30381;52.754;18.258;2023-02-21T11:54:53;100043.02;;;8.77;100.00
44663;BME280;30381;52.754;18.258;2023-02-21T12:07:01;100047.67;;;8.85;100.00
44663;BME280;30381;52.754;18.258;2023-02-21T12:12:48;100062.38;;;8.74;100.00
44663;BME280;30381;52.754;18.258;2023-02-21T12:26:59;100059.59;;;8.53;100.00
44663;BME280;30381;52.754;18.258;2023-02-21T12:32:37;100064.75;;;8.36;100.00
44663;BME280;30381;52.754;18.258;2023-02-21T12:38:49;100066.95;;;8.38;100.00
44663;BME280;30381;52.754;18.258;2023-02-21T12:44:17;100081.60;;;8.33;100.00
44663;BME280;30381;52.754;18.258;2023-02-21T12:46:57;100076.60;;;8.28;100.00
44663;BME280;30381;52.754;18.258;2023-02-21T12:49:56;100077.77;;;8.31;100.00
44663;BME280;30381;52.754;18.258;2023-02-21T12:53:16;100070.17;;;8.44;100.00
44663;BME280;30381;52.754;18.258;2023-02-21T12:55:24;100078.57;;;8.55;100.00
44663;BME280;30381;52.754;18.258;2023-02-21T12:58:30;100076.79;;;8.60;100.00
44663;BME280;30381;52.754;18.258;2023-02-21T13:01:18;100082.29;;;8.65;100.00
44663;BME280;30381;52.754;18.258;2023-02-21T13:04:37;100078.61;;;8.75;100.00
44663;BME280;30381;52.754;18.258;2023-02-21T13:07:40;100079.77;;;8.80;100.00
44663;BME280;30381;52.754;18.258;2023-02-21T13:10:33;100079.64;;;8.82;100.00
44663;BME280;30381;52.754;18.258;2023-02-21T13:15:30;100089.14;;;8.88;100.00
44663;BME280;30381;52.754;18.258;2023-02-21T13:18:24;100092.48;;;8.87;100.00
44663;BME280;30381;52.754;18.258;2023-02-21T13:21:18;100095.54;;;8.92;100.00
44663;BME280;30381;52.754;18.258;2023-02-21T13:23:58;100102.18;;;9.00;100.00
44663;BME280;30381;52.754;18.258;2023-02-21T13:30:49;100103.95;;;9.09;100.00
44663;BME280;30381;52.754;18.258;2023-02-21T13:33:42;100105.34;;;9.04;100.00
44663;BME280;30381;52.754;18.258;2023-02-21T13:36:44;100113.42;;;9.01;100.00
44663;BME280;30381;52.754;18.258;2023-02-21T13:39:26;100114.61;;;9.01;100.00
44663;BME280;30381;52.754;18.258;2023-02-21T13:42:10;100117.98;;;9.00;100.00
44663;BME280;30381;52.754;18.258;2023-02-21T13:44:47;100118.73;;;9.02;100.00
44663;BME280;30381;52.754;18.258;2023-02-21T13:47:22;100119.97;;;9.04;100.00
44663;BME280;30381;52.754;18.258;2023-02-21T13:49:57;100120.67;;;9.09;100.00
44663;BME280;30381;52.754;18.258;2023-02-21T13:52:33;100121.82;;;9.10;100.00
44663;BME280;30381;52.754;18.258;2023-02-21T13:55:20;100123.59;;;9.02;100.00
44663;BME280;30381;52.754;18.258;2023-02-21T14:08:48;100125.94;;;8.86;100.00
44663;BME280;30381;52.754;18.258;2023-02-21T14:11:19;100138.51;;;8.87;100.00
44663;BME280;30381;52.754;18.258;2023-02-21T14:14:04;100133.36;;;8.86;100.00
44663;BME280;30381;52.754;18.258;2023-02-21T14:16:52;100138.73;;;8.79;100.00
44663;BME280;30381;52.754;18.258;2023-02-21T14:19:25;100142.12;;;8.74;100.00
44663;BME280;30381;52.754;18.258;2023-02-21T14:22:27;100142.75;;;8.64;100.00
44663;BME280;30381;52.754;18.258;2023-02-21T14:25:23;100150.64;;;8.56;100.00
44663;BME280;30381;52.754;18.258;2023-02-21T15:13:35;100184.74;;;7.83;100.00
44663;BME280;30381;52.754;18.258;2023-02-21T15:20:25;100194.71;;;7.62;100.00
44663;BME280;30381;52.754;18.258;2023-02-21T15:23:12;100199.48;;;7.56;100.00
44663;BME280;30381;52.754;18.258;2023-02-21T15:26:27;100208.30;;;7.48;100.00
44663;BME280;30381;52.754;18.258;2023-02-21T15:29:11;100213.06;;;7.40;100.00
44663;BME280;30381;52.754;18.258;2023-02-21T15:31:56;100208.45;;;7.35;100.00
44663;BME280;30381;52.754;18.258;2023-02-21T15:34:27;100212.61;;;7.29;100.00
44663;BME280;30381;52.754;18.258;2023-02-21T15:39:52;100216.88;;;7.16;100.00
44663;BME280;30381;52.754;18.258;2023-02-21T15:42:21;100223.38;;;7.10;100.00
44663;BME280;30381;52.754;18.258;2023-02-21T15:47:23;100231.63;;;6.94;100.00
44663;BME280;30381;52.754;18.258;2023-02-21T15:50:09;100235.17;;;6.85;100.00
44663;BME280;30381;52.754;18.258;2023-02-21T15:52:55;100237.33;;;6.76;100.00
44663;BME280;30381;52.754;18.258;2023-02-21T15:55:53;100248.27;;;6.62;100.00
44663;BME280;30381;52.754;18.258;2023-02-21T15:58:24;100256.65;;;6.54;100.00
44663;BME280;30381;52.754;18.258;2023-02-21T16:01:05;100252.67;;;6.44;100.00
44663;BME280;30381;52.754;18.258;2023-02-21T16:04:02;100254.17;;;6.34;100.00
44663;BME280;30381;52.754;18.258;2023-02-21T16:07:14;100255.32;;;6.24;100.00
44663;BME280;30381;52.754;18.258;2023-02-21T16:10:06;100267.66;;;6.13;100.00
44663;BME280;30381;52.754;18.258;2023-02-21T16:13:09;100269.86;;;6.03;100.00
44663;BME280;30381;52.754;18.258;2023-02-21T16:15:48;100270.20;;;5.92;100.00
44663;BME280;30381;52.754;18.258;2023-02-21T16:18:23;100275.08;;;5.84;100.00
44663;BME280;30381;52.754;18.258;2023-02-21T16:20:59;100283.07;;;5.78;100.00
44663;BME280;30381;52.754;18.258;2023-02-21T16:23:41;100284.38;;;5.70;100.00
44663;BME280;30381;52.754;18.258;2023-02-21T16:26:19;100283.25;;;5.61;100.00
44663;BME280;30381;52.754;18.258;2023-02-21T16:28:50;100288.11;;;5.52;100.00
44663;BME280;30381;52.754;18.258;2023-02-21T16:31:39;100290.40;;;5.44;100.00
44663;BME280;30381;52.754;18.258;2023-02-21T16:34:21;100292.48;;;5.35;100.00
44663;BME280;30381;52.754;18.258;2023-02-21T16:37:02;100300.38;;;5.26;100.00
44663;BME280;30381;52.754;18.258;2023-02-21T16:39:33;100307.81;;;5.18;100.00
44663;BME280;30381;52.754;18.258;2023-02-21T16:42:06;100308.73;;;5.11;100.00
44663;BME280;30381;52.754;18.258;2023-02-21T16:46:58;100313.11;;;5.02;100.00
44663;BME280;30381;52.754;18.258;2023-02-21T16:49:31;100320.23;;;4.99;100.00